sensor_id;sensor_type;location;lat;lon;timestamp;pressure;altitude;pressure_sealevel;temperature
74485;BMP280;62942;52.462;10.846;2022-12-16T00:00:36;100220;;;
74485;BMP280;62942;52.462;10.846;2022-12-16T00:01:46;100220;;;
74485;BMP280;62942;52.462;10.846;2022-12-16T00:02:46;100230;;;
74485;BMP280;62942;52.462;10.846;2022-12-16T00:03:56;100230;;;
74485;BMP280;62942;52.462;10.846;2022-12-16T00:04:56;100230;;;
74485;BMP280;62942;52.462;10.846;2022-12-16T00:06:07;100230;;;
74485;BMP280;62942;52.462;10.846;2022-12-16T00:07:06;100230;;;
74485;BMP280;62942;52.462;10.846;2022-12-16T00:08:16;100230;;;
74485;BMP280;62942;52.462;10.846;2022-12-16T00:09:16;100230;;;
74485;BMP280;62942;52.462;10.846;2022-12-16T00:10:16;100230;;;
74485;BMP280;62942;52.462;10.846;2022-12-16T00:11:26;100230;;;
74485;BMP280;62942;52.462;10.846;2022-12-16T00:12:36;100230;;;
74485;BMP280;62942;52.462;10.846;2022-12-16T00:13:46;100230;;;
74485;BMP280;62942;52.462;10.846;2022-12-16T00:14:46;100240;;;
74485;BMP280;62942;52.462;10.846;2022-12-16T00:15:56;100230;;;
74485;BMP280;62942;52.462;10.846;2022-12-16T00:16:56;100230;;;
74485;BMP280;62942;52.462;10.846;2022-12-16T00:18:06;100230;;;
74485;BMP280;62942;52.462;10.846;2022-12-16T00:19:06;100230;;;
74485;BMP280;62942;52.462;10.846;2022-12-16T00:20:06;100230;;;
74485;BMP280;62942;52.462;10.846;2022-12-16T00:21:16;100230;;;
74485;BMP280;62942;52.462;10.846;2022-12-16T00:22:26;100230;;;
74485;BMP280;62942;52.462;10.846;2022-12-16T00:23:36;100230;;;
74485;BMP280;62942;52.462;10.846;2022-12-16T00:24:36;100240;;;
74485;BMP280;62942;52.462;10.846;2022-12-16T00:25:46;100230;;;
74485;BMP280;62942;52.462;10.846;2022-12-16T00:26:46;100230;;;
74485;BMP280;62942;52.462;10.846;2022-12-16T00:27:56;100240;;;
74485;BMP280;62942;52.462;10.846;2022-12-16T00:28:56;100240;;;
74485;BMP280;62942;52.462;10.846;2022-12-16T00:30:06;100240;;;
74485;BMP280;62942;52.462;10.846;2022-12-16T00:31:16;100250;;;
74485;BMP280;62942;52.462;10.846;2022-12-16T00:32:16;100250;;;
74485;BMP280;62942;52.462;10.846;2022-12-16T00:33:26;100240;;;
74485;BMP280;62942;52.462;10.846;2022-12-16T00:34:26;100250;;;
74485;BMP280;62942;52.462;10.846;2022-12-16T00:35:27;100240;;;
74485;BMP280;62942;52.462;10.846;2022-12-16T00:36:36;100240;;;
74485;BMP280;62942;52.462;10.846;2022-12-16T00:37:36;100250;;;
74485;BMP280;62942;52.462;10.846;2022-12-16T00:38:46;100250;;;
74485;BMP280;62942;52.462;10.846;2022-12-16T00:39:56;100250;;;
74485;BMP280;62942;52.462;10.846;2022-12-16T00:41:06;100250;;;
74485;BMP280;62942;52.462;10.846;2022-12-16T00:42:06;100250;;;
74485;BMP280;62942;52.462;10.846;2022-12-16T00:43:16;100250;;;
74485;BMP280;62942;52.462;10.846;2022-12-16T00:44:16;100250;;;
74485;BMP280;62942;52.462;10.846;2022-12-16T00:45:16;100250;;;
74485;BMP280;62942;52.462;10.846;2022-12-16T00:46:16;100250;;;
74485;BMP280;62942;52.462;10.846;2022-12-16T00:47:26;100250;;;
74485;BMP280;62942;52.462;10.846;2022-12-16T00:48:36;100250;;;
74485;BMP280;62942;52.462;10.846;2022-12-16T00:49:36;100250;;;
74485;BMP280;62942;52.462;10.846;2022-12-16T00:50:48;100250;;;
74485;BMP280;62942;52.462;10.846;2022-12-16T00:51:46;100250;;;
74485;BMP280;62942;52.462;10.846;2022-12-16T00:52:56;100260;;;
74485;BMP280;62942;52.462;10.846;2022-12-16T00:54:06;100260;;;
74485;BMP280;62942;52.462;10.846;2022-12-16T00:55:06;100250;;;
74485;BMP280;62942;52.462;10.846;2022-12-16T00:56:16;100250;;;
74485;BMP280;62942;52.462;10.846;2022-12-16T00:57:26;100250;;;
74485;BMP280;62942;52.462;10.846;2022-12-16T00:58:36;100250;;;
74485;BMP280;62942;52.462;10.846;2022-12-16T00:59:36;100250;;;
74485;BMP280;62942;52.462;10.846;2022-12-16T01:00:36;100250;;;
74485;BMP280;62942;52.462;10.846;2022-12-16T01:01:36;100250;;;
74485;BMP280;62942;52.462;10.846;2022-12-16T01:02:46;100250;;;
74485;BMP280;62942;52.462;10.846;2022-12-16T01:03:56;100250;;;
74485;BMP280;62942;52.462;10.846;2022-12-16T01:04:56;100250;;;
74485;BMP280;62942;52.462;10.846;2022-12-16T01:06:06;100250;;;
74485;BMP280;62942;52.462;10.846;2022-12-16T01:07:16;100250;;;
74485;BMP280;62942;52.462;10.846;2022-12-16T01:08:26;100250;;;
74485;BMP280;62942;52.462;10.846;2022-12-16T01:09:26;100250;;;
74485;BMP280;62942;52.462;10.846;2022-12-16T01:10:36;100250;;;
74485;BMP280;62942;52.462;10.846;2022-12-16T01:11:46;100250;;;
74485;BMP280;62942;52.462;10.846;2022-12-16T01:12:46;100260;;;
74485;BMP280;62942;52.462;10.846;2022-12-16T01:13:56;100260;;;
74485;BMP280;62942;52.462;10.846;2022-12-16T01:14:56;100260;;;
74485;BMP280;62942;52.462;10.846;2022-12-16T01:16:06;100260;;;
74485;BMP280;62942;52.462;10.846;2022-12-16T01:17:06;100260;;;
74485;BMP280;62942;52.462;10.846;2022-12-16T01:18:06;100260;;;
74485;BMP280;62942;52.462;10.846;2022-12-16T01:19:16;100250;;;
74485;BMP280;62942;52.462;10.846;2022-12-16T01:20:16;100260;;;
74485;BMP280;62942;52.462;10.846;2022-12-16T01:21:26;100260;;;
74485;BMP280;62942;52.462;10.846;2022-12-16T01:22:30;100260;;;
74485;BMP280;62942;52.462;10.846;2022-12-16T01:23:26;100260;;;
74485;BMP280;62942;52.462;10.846;2022-12-16T01:24:36;100250;;;
74485;BMP280;62942;52.462;10.846;2022-12-16T01:25:47;100260;;;
74485;BMP280;62942;52.462;10.846;2022-12-16T01:26:46;100260;;;
74485;BMP280;62942;52.462;10.846;2022-12-16T01:27:56;100260;;;
74485;BMP280;62942;52.462;10.846;2022-12-16T01:28:56;100260;;;
74485;BMP280;62942;52.462;10.846;2022-12-16T01:30:06;100260;;;
74485;BMP280;62942;52.462;10.846;2022-12-16T01:31:06;100260;;;
74485;BMP280;62942;52.462;10.846;2022-12-16T01:32:16;100270;;;
74485;BMP280;62942;52.462;10.846;2022-12-16T01:33:16;100270;;;
74485;BMP280;62942;52.462;10.846;2022-12-16T01:34:26;100270;;;
74485;BMP280;62942;52.462;10.846;2022-12-16T01:35:26;100260;;;
74485;BMP280;62942;52.462;10.846;2022-12-16T01:36:26;100260;;;
74485;BMP280;62942;52.462;10.846;2022-12-16T01:37:36;100260;;;
74485;BMP280;62942;52.462;10.846;2022-12-16T01:38:46;100260;;;
74485;BMP280;62942;52.462;10.846;2022-12-16T01:39:56;100260;;;
74485;BMP280;62942;52.462;10.846;2022-12-16T01:40:56;100260;;;
74485;BMP280;62942;52.462;10.846;2022-12-16T01:42:08;100260;;;
74485;BMP280;62942;52.462;10.846;2022-12-16T01:43:08;100260;;;
74485;BMP280;62942;52.462;10.846;2022-12-16T01:44:11;100260;;;
74485;BMP280;62942;52.462;10.846;2022-12-16T01:45:21;100270;;;
74485;BMP280;62942;52.462;10.846;2022-12-16T01:46:26;100270;;;
74485;BMP280;62942;52.462;10.846;2022-12-16T01:47:27;100270;;;
74485;BMP280;62942;52.462;10.846;2022-12-16T01:48:39;100280;;;
74485;BMP280;62942;52.462;10.846;2022-12-16T01:49:47;100280;;;
74485;BMP280;62942;52.462;10.846;2022-12-16T01:50:46;100280;;;
74485;BMP280;62942;52.462;10.846;2022-12-16T01:51:56;100280;;;
74485;BMP280;62942;52.462;10.846;2022-12-16T01:52:56;100280;;;
74485;BMP280;62942;52.462;10.846;2022-12-16T01:53:57;100290;;;
74485;BMP280;62942;52.462;10.846;2022-12-16T01:54:57;100280;;;
74485;BMP280;62942;52.462;10.846;2022-12-16T01:56:06;100280;;;
74485;BMP280;62942;52.462;10.846;2022-12-16T01:57:16;100290;;;
74485;BMP280;62942;52.462;10.846;2022-12-16T01:58:17;100280;;;
74485;BMP280;62942;52.462;10.846;2022-12-16T01:59:16;100280;;;
74485;BMP280;62942;52.462;10.846;2022-12-16T02:00:26;100280;;;
74485;BMP280;62942;52.462;10.846;2022-12-16T02:01:26;100280;;;
74485;BMP280;62942;52.462;10.846;2022-12-16T02:02:36;100280;;;
74485;BMP280;62942;52.462;10.846;2022-12-16T02:03:36;100290;;;
74485;BMP280;62942;52.462;10.846;2022-12-16T02:04:46;100280;;;
74485;BMP280;62942;52.462;10.846;2022-12-16T02:05:46;100280;;;
74485;BMP280;62942;52.462;10.846;2022-12-16T02:06:56;100280;;;
74485;BMP280;62942;52.462;10.846;2022-12-16T02:08:08;100280;;;
74485;BMP280;62942;52.462;10.846;2022-12-16T02:09:06;100270;;;
74485;BMP280;62942;52.462;10.846;2022-12-16T02:10:16;100270;;;
74485;BMP280;62942;52.462;10.846;2022-12-16T02:11:20;100270;;;
74485;BMP280;62942;52.462;10.846;2022-12-16T02:12:27;100270;;;
74485;BMP280;62942;52.462;10.846;2022-12-16T02:13:28;100270;;;
74485;BMP280;62942;52.462;10.846;2022-12-16T02:14:56;100270;;;
74485;BMP280;62942;52.462;10.846;2022-12-16T02:15:47;100270;;;
74485;BMP280;62942;52.462;10.846;2022-12-16T02:16:48;100270;;;
74485;BMP280;62942;52.462;10.846;2022-12-16T02:17:57;100280;;;
74485;BMP280;62942;52.462;10.846;2022-12-16T02:18:59;100280;;;
74485;BMP280;62942;52.462;10.846;2022-12-16T02:20:09;100280;;;
74485;BMP280;62942;52.462;10.846;2022-12-16T02:21:18;100280;;;
74485;BMP280;62942;52.462;10.846;2022-12-16T02:22:19;100280;;;
74485;BMP280;62942;52.462;10.846;2022-12-16T02:23:35;100270;;;
74485;BMP280;62942;52.462;10.846;2022-12-16T02:24:42;100280;;;
74485;BMP280;62942;52.462;10.846;2022-12-16T02:25:51;100280;;;
74485;BMP280;62942;52.462;10.846;2022-12-16T02:26:51;100280;;;
74485;BMP280;62942;52.462;10.846;2022-12-16T02:28:01;100280;;;
74485;BMP280;62942;52.462;10.846;2022-12-16T02:29:10;100280;;;
74485;BMP280;62942;52.462;10.846;2022-12-16T02:30:50;100280;;;
74485;BMP280;62942;52.462;10.846;2022-12-16T02:31:18;100280;;;
74485;BMP280;62942;52.462;10.846;2022-12-16T02:32:17;100280;;;
74485;BMP280;62942;52.462;10.846;2022-12-16T02:33:29;100270;;;
74485;BMP280;62942;52.462;10.846;2022-12-16T02:34:27;100280;;;
74485;BMP280;62942;52.462;10.846;2022-12-16T02:35:27;100280;;;
74485;BMP280;62942;52.462;10.846;2022-12-16T02:36:41;100280;;;
74485;BMP280;62942;52.462;10.846;2022-12-16T02:37:47;100280;;;
74485;BMP280;62942;52.462;10.846;2022-12-16T02:38:57;100290;;;
74485;BMP280;62942;52.462;10.846;2022-12-16T02:40:07;100280;;;
74485;BMP280;62942;52.462;10.846;2022-12-16T02:41:08;100280;;;
74485;BMP280;62942;52.462;10.846;2022-12-16T02:42:18;100280;;;
74485;BMP280;62942;52.462;10.846;2022-12-16T02:43:35;100280;;;
74485;BMP280;62942;52.462;10.846;2022-12-16T02:44:39;100280;;;
74485;BMP280;62942;52.462;10.846;2022-12-16T02:45:36;100280;;;
74485;BMP280;62942;52.462;10.846;2022-12-16T02:46:50;100290;;;
74485;BMP280;62942;52.462;10.846;2022-12-16T02:47:46;100280;;;
74485;BMP280;62942;52.462;10.846;2022-12-16T02:48:56;100280;;;
74485;BMP280;62942;52.462;10.846;2022-12-16T02:50:08;100280;;;
74485;BMP280;62942;52.462;10.846;2022-12-16T02:51:16;100280;;;
74485;BMP280;62942;52.462;10.846;2022-12-16T02:52:26;100280;;;
74485;BMP280;62942;52.462;10.846;2022-12-16T02:53:26;100280;;;
74485;BMP280;62942;52.462;10.846;2022-12-16T02:54:36;100270;;;
74485;BMP280;62942;52.462;10.846;2022-12-16T02:55:39;100270;;;
74485;BMP280;62942;52.462;10.846;2022-12-16T02:56:48;100280;;;
74485;BMP280;62942;52.462;10.846;2022-12-16T02:57:52;100270;;;
74485;BMP280;62942;52.462;10.846;2022-12-16T02:58:56;100280;;;
74485;BMP280;62942;52.462;10.846;2022-12-16T03:00:06;100280;;;
74485;BMP280;62942;52.462;10.846;2022-12-16T03:01:07;100280;;;
74485;BMP280;62942;52.462;10.846;2022-12-16T03:02:18;100280;;;
74485;BMP280;62942;52.462;10.846;2022-12-16T03:03:29;100280;;;
74485;BMP280;62942;52.462;10.846;2022-12-16T03:04:37;100280;;;
74485;BMP280;62942;52.462;10.846;2022-12-16T03:05:37;100280;;;
74485;BMP280;62942;52.462;10.846;2022-12-16T03:06:46;100280;;;
74485;BMP280;62942;52.462;10.846;2022-12-16T03:07:56;100270;;;
74485;BMP280;62942;52.462;10.846;2022-12-16T03:09:07;100270;;;
74485;BMP280;62942;52.462;10.846;2022-12-16T03:10:07;100280;;;
74485;BMP280;62942;52.462;10.846;2022-12-16T03:11:16;100280;;;
74485;BMP280;62942;52.462;10.846;2022-12-16T03:12:26;100270;;;
74485;BMP280;62942;52.462;10.846;2022-12-16T03:13:26;100270;;;
74485;BMP280;62942;52.462;10.846;2022-12-16T03:14:36;100280;;;
74485;BMP280;62942;52.462;10.846;2022-12-16T03:15:36;100280;;;
74485;BMP280;62942;52.462;10.846;2022-12-16T03:16:46;100280;;;
74485;BMP280;62942;52.462;10.846;2022-12-16T03:17:56;100270;;;
74485;BMP280;62942;52.462;10.846;2022-12-16T03:19:06;100270;;;
74485;BMP280;62942;52.462;10.846;2022-12-16T03:20:07;100280;;;
74485;BMP280;62942;52.462;10.846;2022-12-16T03:21:16;100270;;;
74485;BMP280;62942;52.462;10.846;2022-12-16T03:22:26;100270;;;
74485;BMP280;62942;52.462;10.846;2022-12-16T03:23:27;100280;;;
74485;BMP280;62942;52.462;10.846;2022-12-16T03:24:26;100270;;;
74485;BMP280;62942;52.462;10.846;2022-12-16T03:25:36;100270;;;
74485;BMP280;62942;52.462;10.846;2022-12-16T03:26:38;100280;;;
74485;BMP280;62942;52.462;10.846;2022-12-16T03:27:38;100270;;;
74485;BMP280;62942;52.462;10.846;2022-12-16T03:28:47;100280;;;
74485;BMP280;62942;52.462;10.846;2022-12-16T03:29:49;100280;;;
74485;BMP280;62942;52.462;10.846;2022-12-16T03:30:46;100280;;;
74485;BMP280;62942;52.462;10.846;2022-12-16T03:31:56;100280;;;
74485;BMP280;62942;52.462;10.846;2022-12-16T03:33:07;100280;;;
74485;BMP280;62942;52.462;10.846;2022-12-16T03:34:16;100290;;;
74485;BMP280;62942;52.462;10.846;2022-12-16T03:35:17;100290;;;
74485;BMP280;62942;52.462;10.846;2022-12-16T03:36:26;100280;;;
74485;BMP280;62942;52.462;10.846;2022-12-16T03:37:26;100290;;;
74485;BMP280;62942;52.462;10.846;2022-12-16T03:38:36;100280;;;
74485;BMP280;62942;52.462;10.846;2022-12-16T03:39:46;100280;;;
74485;BMP280;62942;52.462;10.846;2022-12-16T03:40:56;100280;;;
74485;BMP280;62942;52.462;10.846;2022-12-16T03:41:56;100280;;;
74485;BMP280;62942;52.462;10.846;2022-12-16T03:43:06;100280;;;
74485;BMP280;62942;52.462;10.846;2022-12-16T03:44:16;100280;;;
74485;BMP280;62942;52.462;10.846;2022-12-16T03:45:26;100290;;;
74485;BMP280;62942;52.462;10.846;2022-12-16T03:46:26;100280;;;
74485;BMP280;62942;52.462;10.846;2022-12-16T03:47:36;100290;;;
74485;BMP280;62942;52.462;10.846;2022-12-16T03:48:43;100290;;;
74485;BMP280;62942;52.462;10.846;2022-12-16T03:49:46;100290;;;
74485;BMP280;62942;52.462;10.846;2022-12-16T03:50:56;100280;;;
74485;BMP280;62942;52.462;10.846;2022-12-16T03:52:06;100280;;;
74485;BMP280;62942;52.462;10.846;2022-12-16T03:53:15;100280;;;
74485;BMP280;62942;52.462;10.846;2022-12-16T03:54:15;100280;;;
74485;BMP280;62942;52.462;10.846;2022-12-16T03:55:26;100280;;;
74485;BMP280;62942;52.462;10.846;2022-12-16T03:56:26;100280;;;
74485;BMP280;62942;52.462;10.846;2022-12-16T03:57:35;100280;;;
74485;BMP280;62942;52.462;10.846;2022-12-16T03:58:45;100280;;;
74485;BMP280;62942;52.462;10.846;2022-12-16T03:59:45;100290;;;
74485;BMP280;62942;52.462;10.846;2022-12-16T04:00:46;100290;;;
74485;BMP280;62942;52.462;10.846;2022-12-16T04:01:55;100290;;;
74485;BMP280;62942;52.462;10.846;2022-12-16T04:03:05;100290;;;
74485;BMP280;62942;52.462;10.846;2022-12-16T04:04:06;100300;;;
74485;BMP280;62942;52.462;10.846;2022-12-16T04:05:06;100300;;;
74485;BMP280;62942;52.462;10.846;2022-12-16T04:06:06;100290;;;
74485;BMP280;62942;52.462;10.846;2022-12-16T04:07:15;100290;;;
74485;BMP280;62942;52.462;10.846;2022-12-16T04:08:16;100290;;;
74485;BMP280;62942;52.462;10.846;2022-12-16T04:09:25;100290;;;
74485;BMP280;62942;52.462;10.846;2022-12-16T04:10:26;100290;;;
74485;BMP280;62942;52.462;10.846;2022-12-16T04:11:35;100290;;;
74485;BMP280;62942;52.462;10.846;2022-12-16T04:12:35;100290;;;
74485;BMP280;62942;52.462;10.846;2022-12-16T04:13:35;100290;;;
74485;BMP280;62942;52.462;10.846;2022-12-16T04:14:35;100290;;;
74485;BMP280;62942;52.462;10.846;2022-12-16T04:15:45;100290;;;
74485;BMP280;62942;52.462;10.846;2022-12-16T04:16:45;100290;;;
74485;BMP280;62942;52.462;10.846;2022-12-16T04:17:55;100290;;;
74485;BMP280;62942;52.462;10.846;2022-12-16T04:19:07;100290;;;
74485;BMP280;62942;52.462;10.846;2022-12-16T04:20:07;100290;;;
74485;BMP280;62942;52.462;10.846;2022-12-16T04:21:05;100290;;;
74485;BMP280;62942;52.462;10.846;2022-12-16T04:22:16;100290;;;
74485;BMP280;62942;52.462;10.846;2022-12-16T04:23:15;100290;;;
74485;BMP280;62942;52.462;10.846;2022-12-16T04:24:16;100290;;;
74485;BMP280;62942;52.462;10.846;2022-12-16T04:25:16;100290;;;
74485;BMP280;62942;52.462;10.846;2022-12-16T04:26:25;100310;;;
74485;BMP280;62942;52.462;10.846;2022-12-16T04:27:35;100310;;;
74485;BMP280;62942;52.462;10.846;2022-12-16T04:28:35;100300;;;
74485;BMP280;62942;52.462;10.846;2022-12-16T04:29:45;100310;;;
74485;BMP280;62942;52.462;10.846;2022-12-16T04:30:55;100310;;;
74485;BMP280;62942;52.462;10.846;2022-12-16T04:31:55;100310;;;
74485;BMP280;62942;52.462;10.846;2022-12-16T04:33:06;100310;;;
74485;BMP280;62942;52.462;10.846;2022-12-16T04:34:05;100310;;;
74485;BMP280;62942;52.462;10.846;2022-12-16T04:35:15;100320;;;
74485;BMP280;62942;52.462;10.846;2022-12-16T04:36:25;100320;;;
74485;BMP280;62942;52.462;10.846;2022-12-16T04:37:35;100320;;;
74485;BMP280;62942;52.462;10.846;2022-12-16T04:38:45;100320;;;
74485;BMP280;62942;52.462;10.846;2022-12-16T04:39:55;100320;;;
74485;BMP280;62942;52.462;10.846;2022-12-16T04:40:55;100320;;;
74485;BMP280;62942;52.462;10.846;2022-12-16T04:42:05;100320;;;
74485;BMP280;62942;52.462;10.846;2022-12-16T04:43:05;100320;;;
74485;BMP280;62942;52.462;10.846;2022-12-16T04:44:15;100320;;;
74485;BMP280;62942;52.462;10.846;2022-12-16T04:45:25;100320;;;
74485;BMP280;62942;52.462;10.846;2022-12-16T04:46:35;100320;;;
74485;BMP280;62942;52.462;10.846;2022-12-16T04:47:35;100320;;;
74485;BMP280;62942;52.462;10.846;2022-12-16T04:48:45;100330;;;
74485;BMP280;62942;52.462;10.846;2022-12-16T04:49:55;100320;;;
74485;BMP280;62942;52.462;10.846;2022-12-16T04:51:05;100320;;;
74485;BMP280;62942;52.462;10.846;2022-12-16T04:52:05;100330;;;
74485;BMP280;62942;52.462;10.846;2022-12-16T04:53:15;100330;;;
74485;BMP280;62942;52.462;10.846;2022-12-16T04:54:25;100330;;;
74485;BMP280;62942;52.462;10.846;2022-12-16T04:55:35;100330;;;
74485;BMP280;62942;52.462;10.846;2022-12-16T04:56:35;100330;;;
74485;BMP280;62942;52.462;10.846;2022-12-16T04:57:46;100330;;;
74485;BMP280;62942;52.462;10.846;2022-12-16T04:58:45;100330;;;
74485;BMP280;62942;52.462;10.846;2022-12-16T04:59:45;100340;;;
74485;BMP280;62942;52.462;10.846;2022-12-16T05:00:55;100340;;;
74485;BMP280;62942;52.462;10.846;2022-12-16T05:02:05;100340;;;
74485;BMP280;62942;52.462;10.846;2022-12-16T05:03:06;100340;;;
74485;BMP280;62942;52.462;10.846;2022-12-16T05:04:15;100350;;;
74485;BMP280;62942;52.462;10.846;2022-12-16T05:05:25;100350;;;
74485;BMP280;62942;52.462;10.846;2022-12-16T05:06:25;100350;;;
74485;BMP280;62942;52.462;10.846;2022-12-16T05:07:35;100340;;;
74485;BMP280;62942;52.462;10.846;2022-12-16T05:08:45;100350;;;
74485;BMP280;62942;52.462;10.846;2022-12-16T05:09:45;100350;;;
74485;BMP280;62942;52.462;10.846;2022-12-16T05:10:45;100340;;;
74485;BMP280;62942;52.462;10.846;2022-12-16T05:11:55;100350;;;
74485;BMP280;62942;52.462;10.846;2022-12-16T05:12:55;100340;;;
74485;BMP280;62942;52.462;10.846;2022-12-16T05:14:05;100350;;;
74485;BMP280;62942;52.462;10.846;2022-12-16T05:15:06;100340;;;
74485;BMP280;62942;52.462;10.846;2022-12-16T05:16:15;100340;;;
74485;BMP280;62942;52.462;10.846;2022-12-16T05:17:25;100340;;;
74485;BMP280;62942;52.462;10.846;2022-12-16T05:18:25;100340;;;
74485;BMP280;62942;52.462;10.846;2022-12-16T05:19:35;100340;;;
74485;BMP280;62942;52.462;10.846;2022-12-16T05:20:45;100340;;;
74485;BMP280;62942;52.462;10.846;2022-12-16T05:21:55;100350;;;
74485;BMP280;62942;52.462;10.846;2022-12-16T05:22:55;100350;;;
74485;BMP280;62942;52.462;10.846;2022-12-16T05:23:55;100350;;;
74485;BMP280;62942;52.462;10.846;2022-12-16T05:25:06;100360;;;
74485;BMP280;62942;52.462;10.846;2022-12-16T05:26:15;100350;;;
74485;BMP280;62942;52.462;10.846;2022-12-16T05:27:25;100350;;;
74485;BMP280;62942;52.462;10.846;2022-12-16T05:28:35;100350;;;
74485;BMP280;62942;52.462;10.846;2022-12-16T05:29:35;100350;;;
74485;BMP280;62942;52.462;10.846;2022-12-16T05:30:45;100360;;;
74485;BMP280;62942;52.462;10.846;2022-12-16T05:31:45;100360;;;
74485;BMP280;62942;52.462;10.846;2022-12-16T05:32:55;100360;;;
74485;BMP280;62942;52.462;10.846;2022-12-16T05:34:06;100370;;;
74485;BMP280;62942;52.462;10.846;2022-12-16T05:35:05;100370;;;
74485;BMP280;62942;52.462;10.846;2022-12-16T05:36:05;100360;;;
74485;BMP280;62942;52.462;10.846;2022-12-16T05:37:05;100370;;;
74485;BMP280;62942;52.462;10.846;2022-12-16T05:38:05;100370;;;
74485;BMP280;62942;52.462;10.846;2022-12-16T05:39:15;100370;;;
74485;BMP280;62942;52.462;10.846;2022-12-16T05:40:15;100370;;;
74485;BMP280;62942;52.462;10.846;2022-12-16T05:41:15;100370;;;
74485;BMP280;62942;52.462;10.846;2022-12-16T05:42:25;100370;;;
74485;BMP280;62942;52.462;10.846;2022-12-16T05:43:35;100380;;;
74485;BMP280;62942;52.462;10.846;2022-12-16T05:44:35;100370;;;
74485;BMP280;62942;52.462;10.846;2022-12-16T05:45:35;100380;;;
74485;BMP280;62942;52.462;10.846;2022-12-16T05:46:45;100370;;;
74485;BMP280;62942;52.462;10.846;2022-12-16T05:47:46;100380;;;
74485;BMP280;62942;52.462;10.846;2022-12-16T05:48:45;100380;;;
74485;BMP280;62942;52.462;10.846;2022-12-16T05:49:55;100380;;;
74485;BMP280;62942;52.462;10.846;2022-12-16T05:50:55;100380;;;
74485;BMP280;62942;52.462;10.846;2022-12-16T05:52:05;100380;;;
74485;BMP280;62942;52.462;10.846;2022-12-16T05:53:05;100380;;;
74485;BMP280;62942;52.462;10.846;2022-12-16T05:54:15;100380;;;
74485;BMP280;62942;52.462;10.846;2022-12-16T05:55:45;100390;;;
74485;BMP280;62942;52.462;10.846;2022-12-16T05:56:55;100390;;;
74485;BMP280;62942;52.462;10.846;2022-12-16T05:57:55;100380;;;
74485;BMP280;62942;52.462;10.846;2022-12-16T05:59:05;100380;;;
74485;BMP280;62942;52.462;10.846;2022-12-16T06:00:06;100380;;;
74485;BMP280;62942;52.462;10.846;2022-12-16T06:01:15;100380;;;
74485;BMP280;62942;52.462;10.846;2022-12-16T06:02:25;100380;;;
74485;BMP280;62942;52.462;10.846;2022-12-16T06:03:25;100390;;;
74485;BMP280;62942;52.462;10.846;2022-12-16T06:04:25;100390;;;
74485;BMP280;62942;52.462;10.846;2022-12-16T06:05:25;100380;;;
74485;BMP280;62942;52.462;10.846;2022-12-16T06:06:35;100380;;;
74485;BMP280;62942;52.462;10.846;2022-12-16T06:07:49;100390;;;
74485;BMP280;62942;52.462;10.846;2022-12-16T06:08:55;100390;;;
74485;BMP280;62942;52.462;10.846;2022-12-16T06:09:55;100380;;;
74485;BMP280;62942;52.462;10.846;2022-12-16T06:11:05;100390;;;
74485;BMP280;62942;52.462;10.846;2022-12-16T06:12:05;100390;;;
74485;BMP280;62942;52.462;10.846;2022-12-16T06:13:05;100390;;;
74485;BMP280;62942;52.462;10.846;2022-12-16T06:14:15;100390;;;
74485;BMP280;62942;52.462;10.846;2022-12-16T06:15:25;100390;;;
74485;BMP280;62942;52.462;10.846;2022-12-16T06:16:25;100390;;;
74485;BMP280;62942;52.462;10.846;2022-12-16T06:17:35;100390;;;
74485;BMP280;62942;52.462;10.846;2022-12-16T06:18:35;100390;;;
74485;BMP280;62942;52.462;10.846;2022-12-16T06:19:45;100390;;;
74485;BMP280;62942;52.462;10.846;2022-12-16T06:20:55;100380;;;
74485;BMP280;62942;52.462;10.846;2022-12-16T06:21:55;100390;;;
74485;BMP280;62942;52.462;10.846;2022-12-16T06:22:55;100380;;;
74485;BMP280;62942;52.462;10.846;2022-12-16T06:24:05;100390;;;
74485;BMP280;62942;52.462;10.846;2022-12-16T06:25:05;100380;;;
74485;BMP280;62942;52.462;10.846;2022-12-16T06:26:05;100380;;;
74485;BMP280;62942;52.462;10.846;2022-12-16T06:27:15;100390;;;
74485;BMP280;62942;52.462;10.846;2022-12-16T06:28:15;100390;;;
74485;BMP280;62942;52.462;10.846;2022-12-16T06:29:25;100390;;;
74485;BMP280;62942;52.462;10.846;2022-12-16T06:30:35;100400;;;
74485;BMP280;62942;52.462;10.846;2022-12-16T06:31:35;100400;;;
74485;BMP280;62942;52.462;10.846;2022-12-16T06:32:45;100400;;;
74485;BMP280;62942;52.462;10.846;2022-12-16T06:33:45;100400;;;
74485;BMP280;62942;52.462;10.846;2022-12-16T06:34:45;100400;;;
74485;BMP280;62942;52.462;10.846;2022-12-16T06:35:55;100400;;;
74485;BMP280;62942;52.462;10.846;2022-12-16T06:37:05;100410;;;
74485;BMP280;62942;52.462;10.846;2022-12-16T06:38:05;100410;;;
74485;BMP280;62942;52.462;10.846;2022-12-16T06:39:15;100410;;;
74485;BMP280;62942;52.462;10.846;2022-12-16T06:40:15;100410;;;
74485;BMP280;62942;52.462;10.846;2022-12-16T06:41:15;100410;;;
74485;BMP280;62942;52.462;10.846;2022-12-16T06:42:25;100410;;;
74485;BMP280;62942;52.462;10.846;2022-12-16T06:43:25;100420;;;
74485;BMP280;62942;52.462;10.846;2022-12-16T06:44:35;100420;;;
74485;BMP280;62942;52.462;10.846;2022-12-16T06:45:35;100420;;;
74485;BMP280;62942;52.462;10.846;2022-12-16T06:46:45;100420;;;
74485;BMP280;62942;52.462;10.846;2022-12-16T06:47:45;100420;;;
74485;BMP280;62942;52.462;10.846;2022-12-16T06:48:55;100430;;;
74485;BMP280;62942;52.462;10.846;2022-12-16T06:50:05;100430;;;
74485;BMP280;62942;52.462;10.846;2022-12-16T06:51:15;100430;;;
74485;BMP280;62942;52.462;10.846;2022-12-16T06:52:25;100430;;;
74485;BMP280;62942;52.462;10.846;2022-12-16T06:53:25;100430;;;
74485;BMP280;62942;52.462;10.846;2022-12-16T06:54:36;100430;;;